createdAt,value
2018-12-16T00:01:35.225Z,-0.60
2018-12-16T00:04:03.523Z,-0.50
2018-12-16T00:06:31.652Z,-0.50
2018-12-16T00:08:59.877Z,-0.50
2018-12-16T00:11:28.018Z,-0.50
2018-12-16T00:13:56.185Z,-0.60
2018-12-16T00:16:24.460Z,-0.50
2018-12-16T00:18:52.698Z,-0.50
2018-12-16T00:21:20.845Z,-0.50
2018-12-16T00:23:48.985Z,-0.60
2018-12-16T00:26:17.143Z,-0.60
2018-12-16T00:28:45.378Z,-0.70
2018-12-16T00:31:13.674Z,-0.70
2018-12-16T00:33:41.809Z,-0.80
2018-12-16T00:36:10.029Z,-0.70
2018-12-16T00:38:38.218Z,-0.70
2018-12-16T00:41:06.377Z,-0.70
2018-12-16T00:43:34.590Z,-0.70
2018-12-16T00:46:02.755Z,-0.70
2018-12-16T00:48:30.961Z,-0.60
2018-12-16T00:50:59.193Z,-0.60
2018-12-16T00:53:27.397Z,-0.70
2018-12-16T00:55:55.550Z,-0.70
2018-12-16T00:58:23.761Z,-0.70
2018-12-16T01:00:51.994Z,-0.70
2018-12-16T01:03:20.202Z,-0.70
2018-12-16T01:05:48.374Z,-0.70
2018-12-16T01:08:16.586Z,-0.70
2018-12-16T01:10:44.881Z,-0.60
2018-12-16T01:13:13.097Z,-0.60
2018-12-16T01:15:41.241Z,-0.60
2018-12-16T01:18:09.459Z,-0.60
2018-12-16T01:20:37.757Z,-0.60
2018-12-16T01:23:05.981Z,-0.60
2018-12-16T01:25:34.203Z,-0.60
2018-12-16T01:28:02.511Z,-0.60
2018-12-16T01:30:30.746Z,-0.50
2018-12-16T01:32:58.983Z,-0.50
2018-12-16T01:35:27.114Z,-0.50
2018-12-16T01:37:55.348Z,-0.50
2018-12-16T01:40:23.574Z,-0.50
2018-12-16T01:42:51.713Z,-0.50
2018-12-16T01:45:19.996Z,-0.50
2018-12-16T01:47:48.144Z,-0.50
2018-12-16T01:50:16.342Z,-0.50
2018-12-16T01:52:50.140Z,-0.50
2018-12-16T01:55:14.868Z,-0.50
2018-12-16T01:57:43.097Z,-0.50
2018-12-16T02:00:11.405Z,-0.50
2018-12-16T02:02:39.549Z,-0.60
2018-12-16T02:05:07.845Z,-0.60
2018-12-16T02:07:36.068Z,-0.60
2018-12-16T02:10:04.981Z,-0.60
2018-12-16T02:12:33.213Z,-0.70
2018-12-16T02:15:01.365Z,-0.70
2018-12-16T02:17:29.665Z,-0.80
2018-12-16T02:19:57.877Z,-0.80
2018-12-16T02:22:26.046Z,-0.70
2018-12-16T02:24:54.257Z,-0.80
2018-12-16T02:27:22.501Z,-0.80
2018-12-16T02:29:50.704Z,-0.70
2018-12-16T02:32:18.841Z,-0.70
2018-12-16T02:34:47.046Z,-0.70
2018-12-16T02:37:15.294Z,-0.70
2018-12-16T02:39:43.442Z,-0.80
2018-12-16T02:42:11.657Z,-0.80
2018-12-16T02:44:39.867Z,-0.80
2018-12-16T02:47:08.090Z,-0.80
2018-12-16T02:49:37.394Z,-0.70
2018-12-16T02:52:05.597Z,-0.70
2018-12-16T02:54:33.753Z,-0.70
2018-12-16T02:57:01.967Z,-0.70
2018-12-16T02:59:30.174Z,-0.70
2018-12-16T03:01:58.397Z,-0.70
2018-12-16T03:04:27.397Z,-0.70
2018-12-16T03:06:55.613Z,-0.70
2018-12-16T03:09:23.819Z,-0.70
2018-12-16T03:11:51.965Z,-0.70
2018-12-16T03:14:20.125Z,-0.80
2018-12-16T03:16:48.368Z,-0.80
2018-12-16T03:19:16.505Z,-0.80
2018-12-16T03:21:44.798Z,-0.80
2018-12-16T03:24:12.947Z,-0.80
2018-12-16T03:26:41.082Z,-0.80
2018-12-16T03:29:09.369Z,-0.90
2018-12-16T03:31:37.508Z,-0.80
2018-12-16T03:34:05.878Z,-0.90
2018-12-16T03:36:34.015Z,-0.80
2018-12-16T03:39:02.237Z,-0.80
2018-12-16T03:41:30.459Z,-0.80
2018-12-16T03:43:58.678Z,-0.80
2018-12-16T03:46:26.906Z,-0.80
2018-12-16T03:48:55.062Z,-0.80
2018-12-16T03:51:23.193Z,-0.80
2018-12-16T03:53:51.333Z,-0.80
2018-12-16T03:56:19.469Z,-0.80
2018-12-16T03:58:59.056Z,-0.80
2018-12-16T04:01:27.266Z,-0.80
2018-12-16T04:03:55.427Z,-0.80
2018-12-16T04:06:23.629Z,-0.70
2018-12-16T04:08:51.849Z,-0.70
2018-12-16T04:11:19.989Z,-0.60
2018-12-16T04:13:48.154Z,-0.60
2018-12-16T04:16:16.341Z,-0.60
2018-12-16T04:18:44.590Z,-0.60
2018-12-16T04:21:12.731Z,-0.60
2018-12-16T04:23:40.894Z,-0.60
2018-12-16T04:26:09.060Z,-0.60
2018-12-16T04:28:37.262Z,-0.60
2018-12-16T04:31:05.507Z,-0.60
2018-12-16T04:33:33.732Z,-0.50
2018-12-16T04:36:02.106Z,-0.60
2018-12-16T04:38:30.256Z,-0.60
2018-12-16T04:40:58.476Z,-0.50
2018-12-16T04:43:26.718Z,-0.50
2018-12-16T04:45:54.853Z,-0.50
2018-12-16T04:48:23.060Z,-0.50
2018-12-16T04:50:51.270Z,-0.50
2018-12-16T04:53:19.474Z,-0.60
2018-12-16T04:55:47.605Z,-0.60
2018-12-16T04:58:15.749Z,-0.60
2018-12-16T05:00:43.953Z,-0.70
2018-12-16T05:03:12.088Z,-0.60
2018-12-16T05:05:40.220Z,-0.70
2018-12-16T05:08:08.496Z,-0.60
2018-12-16T05:10:36.757Z,-0.60
2018-12-16T05:13:04.917Z,-0.60
2018-12-16T05:15:33.084Z,-0.60
2018-12-16T05:18:01.226Z,-0.60
2018-12-16T05:20:29.342Z,-0.50
2018-12-16T05:22:57.566Z,-0.60
2018-12-16T05:25:25.789Z,-0.60
2018-12-16T05:27:53.932Z,-0.60
2018-12-16T05:30:22.138Z,-0.50
2018-12-16T05:32:50.272Z,-0.60
2018-12-16T05:35:18.472Z,-0.50
2018-12-16T05:37:46.682Z,-0.50
2018-12-16T05:40:14.821Z,-0.50
2018-12-16T05:42:42.963Z,-0.50
2018-12-16T05:45:11.197Z,-0.50
2018-12-16T05:47:39.327Z,-0.50
2018-12-16T05:50:07.984Z,-0.50
2018-12-16T05:52:36.122Z,-0.50
2018-12-16T05:55:05.018Z,-0.50
2018-12-16T05:57:33.157Z,-0.50
2018-12-16T06:00:01.305Z,-0.50
2018-12-16T06:02:29.507Z,-0.50
2018-12-16T06:04:57.656Z,-0.60
2018-12-16T06:07:25.778Z,-0.60
2018-12-16T06:09:53.987Z,-0.50
2018-12-16T06:12:22.194Z,-0.60
2018-12-16T06:14:50.404Z,-0.50
2018-12-16T06:17:18.624Z,-0.50
2018-12-16T06:19:46.781Z,-0.50
2018-12-16T06:22:14.909Z,-0.50
2018-12-16T06:24:43.121Z,-0.50
2018-12-16T06:27:11.397Z,-0.50
2018-12-16T06:29:40.910Z,-0.60
2018-12-16T06:32:09.111Z,-0.50
2018-12-16T06:34:37.329Z,-0.50
2018-12-16T06:37:05.469Z,-0.50
2018-12-16T06:39:33.623Z,-0.50
2018-12-16T06:42:01.762Z,-0.50
2018-12-16T06:44:29.985Z,-0.60
2018-12-16T06:46:58.132Z,-0.50
2018-12-16T06:49:26.406Z,-0.50
2018-12-16T06:51:54.534Z,-0.60
2018-12-16T06:54:23.865Z,-0.60
2018-12-16T06:56:51.994Z,-0.60
2018-12-16T06:59:20.151Z,-0.50
2018-12-16T07:01:48.364Z,-0.50
2018-12-16T07:04:16.559Z,-0.50
2018-12-16T07:06:44.807Z,-0.50
2018-12-16T07:09:13.021Z,-0.50
2018-12-16T07:11:41.241Z,-0.50
2018-12-16T07:14:09.565Z,-0.50
2018-12-16T07:16:37.781Z,-0.50
2018-12-16T07:19:06.009Z,-0.50
2018-12-16T07:21:34.322Z,-0.50
2018-12-16T07:24:08.985Z,-0.50
2018-12-16T07:26:32.688Z,-0.50
2018-12-16T07:29:00.887Z,-0.50
2018-12-16T07:31:29.194Z,-0.50
2018-12-16T07:33:57.334Z,-0.50
2018-12-16T07:36:25.496Z,-0.50
2018-12-16T07:38:53.792Z,-0.50
2018-12-16T07:41:21.994Z,-0.50
2018-12-16T07:43:50.215Z,-0.50
2018-12-16T07:46:18.652Z,-0.50
2018-12-16T07:48:47.175Z,-0.40
2018-12-16T07:51:15.651Z,-0.40
2018-12-16T07:53:43.926Z,-0.40
2018-12-16T07:56:12.077Z,-0.40
2018-12-16T07:58:40.303Z,-0.40
2018-12-16T08:01:08.626Z,-0.30
2018-12-16T08:03:36.841Z,-0.30
2018-12-16T08:06:05.161Z,-0.30
2018-12-16T08:08:33.452Z,-0.30
2018-12-16T08:11:01.689Z,-0.20
2018-12-16T08:13:29.910Z,-0.30
2018-12-16T08:15:58.064Z,-0.20
2018-12-16T08:18:26.200Z,-0.20
2018-12-16T08:20:54.352Z,-0.20
2018-12-16T08:23:22.502Z,-0.10
2018-12-16T08:25:50.640Z,-0.10
2018-12-16T08:28:18.930Z,-0.10
2018-12-16T08:30:47.068Z,-0.10
2018-12-16T08:33:15.199Z,-0.10
2018-12-16T08:35:43.343Z,-0.10
2018-12-16T08:38:11.785Z,-0.10
2018-12-16T08:40:40.125Z,-0.10
2018-12-16T08:43:08.424Z,-0.10
2018-12-16T08:45:36.631Z,-0.10
2018-12-16T08:48:04.833Z,-0.10
2018-12-16T08:50:33.051Z,0.00
2018-12-16T08:53:01.221Z,0.00
2018-12-16T08:55:29.506Z,0.00
2018-12-16T08:57:57.629Z,0.00
2018-12-16T09:00:25.770Z,0.00
2018-12-16T09:02:53.891Z,0.00
2018-12-16T09:05:22.114Z,0.00
2018-12-16T09:07:50.388Z,0.00
2018-12-16T09:10:18.634Z,0.00
2018-12-16T09:12:46.801Z,0.00
2018-12-16T09:15:14.943Z,0.00
2018-12-16T09:17:43.162Z,-0.10
2018-12-16T09:20:11.453Z,0.00
2018-12-16T09:22:40.123Z,0.00
2018-12-16T09:25:08.437Z,0.00
2018-12-16T09:27:36.703Z,0.00
2018-12-16T09:30:07.756Z,0.00
2018-12-16T09:32:35.975Z,0.00
2018-12-16T09:35:04.345Z,0.00
2018-12-16T09:37:32.549Z,0.00
2018-12-16T09:40:00.673Z,0.00
2018-12-16T09:42:30.948Z,0.10
2018-12-16T09:45:00.984Z,0.00
2018-12-16T09:47:30.807Z,0.00
2018-12-16T09:50:00.637Z,0.00
2018-12-16T09:52:30.309Z,-0.10
2018-12-16T09:54:59.967Z,-0.10
2018-12-16T09:57:29.772Z,-0.10
2018-12-16T09:59:59.772Z,-0.10
2018-12-16T10:02:28.490Z,-0.10
2018-12-16T10:04:58.351Z,-0.10
2018-12-16T10:07:28.180Z,-0.10
2018-12-16T10:09:57.252Z,-0.20
2018-12-16T11:12:42.916Z,-0.70
2018-12-16T11:15:12.693Z,-0.70
2018-12-16T11:18:44.066Z,-0.70
2018-12-16T11:35:54.423Z,-0.70
2018-12-16T11:38:22.670Z,-0.80
2018-12-16T11:40:50.954Z,-0.70
2018-12-16T11:43:19.217Z,-0.70
2018-12-16T11:45:47.353Z,-0.70
2018-12-16T11:48:15.641Z,-0.60
2018-12-16T11:50:43.937Z,-0.60
2018-12-16T11:53:12.181Z,-0.50
2018-12-16T11:55:40.625Z,-0.40
2018-12-16T11:58:08.803Z,-0.40
2018-12-16T12:00:37.004Z,-0.30
2018-12-16T12:03:05.162Z,-0.20
2018-12-16T12:05:33.289Z,-0.20
2018-12-16T12:08:01.446Z,-0.30
2018-12-16T12:10:29.741Z,-0.30
2018-12-16T12:12:57.904Z,-0.30
2018-12-16T12:15:26.113Z,-0.30
2018-12-16T12:17:54.283Z,-0.40
2018-12-16T12:20:22.456Z,-0.40
2018-12-16T12:22:50.690Z,-0.50
2018-12-16T12:25:20.035Z,-0.50
2018-12-16T12:27:48.508Z,-0.50
2018-12-16T12:30:16.758Z,-0.50
2018-12-16T12:32:48.986Z,-0.50
2018-12-16T12:35:15.417Z,-0.40
2018-12-16T12:37:43.575Z,-0.50
2018-12-16T12:40:11.809Z,-0.40
2018-12-16T12:42:40.022Z,-0.40
2018-12-16T12:45:08.370Z,-0.40
2018-12-16T12:47:36.547Z,-0.40
2018-12-16T12:50:05.694Z,-0.30
2018-12-16T12:52:33.855Z,-0.30
2018-12-16T12:55:02.017Z,-0.30
2018-12-16T12:57:30.218Z,-0.30
2018-12-16T12:59:58.780Z,-0.30
2018-12-16T13:02:26.990Z,-0.30
2018-12-16T13:04:55.153Z,-0.40
2018-12-16T13:07:23.316Z,-0.50
2018-12-16T13:09:51.498Z,-0.50
2018-12-16T13:12:19.702Z,-0.50
2018-12-16T13:14:47.953Z,-0.40
2018-12-16T13:17:16.109Z,-0.40
2018-12-16T13:19:44.274Z,-0.40
2018-12-16T13:22:12.486Z,-0.40
2018-12-16T13:24:51.938Z,-0.40
2018-12-16T13:27:20.088Z,-0.40
2018-12-16T13:29:48.338Z,-0.40
2018-12-16T13:32:16.475Z,-0.40
2018-12-16T13:34:45.373Z,-0.40
2018-12-16T13:37:13.519Z,-0.40
2018-12-16T13:39:41.713Z,-0.40
2018-12-16T13:42:09.892Z,-0.40
2018-12-16T13:44:38.021Z,-0.40
2018-12-16T13:47:06.208Z,-0.30
2018-12-16T13:49:34.437Z,-0.30
2018-12-16T13:52:02.740Z,-0.30
2018-12-16T13:54:30.949Z,-0.40
2018-12-16T13:56:59.118Z,-0.40
2018-12-16T13:59:27.264Z,-0.40
2018-12-16T14:01:55.469Z,-0.40
2018-12-16T14:04:23.624Z,-0.40
2018-12-16T14:06:51.841Z,-0.40
2018-12-16T14:09:20.076Z,-0.30
2018-12-16T14:11:48.373Z,-0.30
2018-12-16T14:14:16.530Z,-0.30
2018-12-16T14:16:44.707Z,-0.30
2018-12-16T14:19:13.005Z,-0.20
2018-12-16T14:21:41.186Z,-0.20
2018-12-16T14:24:11.582Z,-0.20
2018-12-16T14:26:39.830Z,-0.20
2018-12-16T14:29:10.037Z,-0.20
2018-12-16T14:31:38.325Z,-0.20
2018-12-16T14:34:06.472Z,-0.20
2018-12-16T14:36:34.644Z,-0.20
2018-12-16T14:39:03.550Z,-0.30
2018-12-16T14:41:31.773Z,-0.20
2018-12-16T14:43:59.926Z,-0.30
2018-12-16T14:46:28.142Z,-0.20
2018-12-16T14:48:56.305Z,-0.30
2018-12-16T14:51:24.471Z,-0.30
2018-12-16T14:53:52.682Z,-0.30
2018-12-16T14:56:20.822Z,-0.30
2018-12-16T14:58:48.954Z,-0.30
2018-12-16T15:01:17.202Z,-0.30
2018-12-16T15:03:45.403Z,-0.30
2018-12-16T15:06:15.088Z,-0.20
2018-12-16T15:08:43.291Z,-0.30
2018-12-16T15:11:11.615Z,-0.20
2018-12-16T15:13:39.845Z,-0.20
2018-12-16T15:16:08.003Z,-0.20
2018-12-16T15:18:36.130Z,-0.30
2018-12-16T15:21:04.345Z,-0.20
2018-12-16T15:23:32.494Z,-0.30
2018-12-16T15:26:02.189Z,-0.20
2018-12-16T15:28:30.612Z,-0.20
2018-12-16T15:30:58.766Z,-0.20
2018-12-16T15:33:30.321Z,-0.20
2018-12-16T15:35:58.591Z,-0.20
2018-12-16T15:38:27.914Z,-0.20
2018-12-16T15:40:56.170Z,-0.30
2018-12-16T15:43:26.437Z,-0.20
2018-12-16T15:45:55.737Z,-0.20
2018-12-16T15:48:25.018Z,-0.20
2018-12-16T15:50:58.202Z,-0.20
2018-12-16T15:53:27.393Z,-0.20
2018-12-16T15:55:55.672Z,-0.20
2018-12-16T15:58:23.809Z,-0.20
2018-12-16T16:00:52.138Z,-0.20
2018-12-16T16:03:20.294Z,-0.10
2018-12-16T16:05:48.461Z,-0.10
2018-12-16T16:08:16.711Z,-0.10
2018-12-16T16:10:45.041Z,-0.10
2018-12-16T16:13:13.308Z,-0.10
2018-12-16T16:15:41.567Z,-0.10
2018-12-16T16:18:09.774Z,0.00
2018-12-16T16:20:38.008Z,0.00
2018-12-16T16:23:06.886Z,0.00
2018-12-16T16:25:35.985Z,-0.10
2018-12-16T16:28:04.276Z,0.00
2018-12-16T16:30:32.562Z,-0.10
2018-12-16T16:33:00.712Z,0.00
2018-12-16T16:35:28.861Z,-0.10
2018-12-16T16:38:00.883Z,0.00
2018-12-16T16:40:28.054Z,0.00
2018-12-16T16:42:56.375Z,-0.10
2018-12-16T16:45:24.703Z,0.00
2018-12-16T16:47:52.928Z,-0.10
2018-12-16T16:50:21.258Z,-0.10
2018-12-16T16:52:49.537Z,0.00
2018-12-16T16:55:18.742Z,0.00
2018-12-16T16:57:46.972Z,0.00
2018-12-16T17:00:16.439Z,0.00
2018-12-16T17:02:44.768Z,0.00
2018-12-16T17:05:13.068Z,0.00
2018-12-16T17:07:41.358Z,0.00
2018-12-16T17:10:09.621Z,0.00
2018-12-16T17:12:37.944Z,0.00
2018-12-16T17:15:07.319Z,0.00
2018-12-16T17:17:35.662Z,0.10
2018-12-16T17:20:04.821Z,0.10
2018-12-16T17:22:34.086Z,0.00
2018-12-16T17:25:02.425Z,0.10
2018-12-16T17:27:30.713Z,0.00
2018-12-16T17:29:58.924Z,0.00
2018-12-16T17:32:27.501Z,0.00
2018-12-16T17:34:57.487Z,0.00
2018-12-16T17:37:25.778Z,0.00
2018-12-16T17:39:56.077Z,0.00
2018-12-16T17:42:25.070Z,0.10
2018-12-16T17:44:57.756Z,0.10
2018-12-16T17:47:26.966Z,0.10
2018-12-16T17:49:55.809Z,0.10
2018-12-16T17:52:25.156Z,0.10
2018-12-16T17:54:54.021Z,0.10
2018-12-16T17:57:22.736Z,0.10
2018-12-16T17:59:51.881Z,0.10
2018-12-16T18:02:20.471Z,0.10
2018-12-16T18:04:50.469Z,0.10
2018-12-16T18:07:26.313Z,0.10
2018-12-16T18:09:58.483Z,0.10
2018-12-16T18:12:27.823Z,0.10
2018-12-16T18:14:57.220Z,0.10
2018-12-16T18:17:26.145Z,0.10
2018-12-16T18:19:55.785Z,0.10
2018-12-16T18:22:24.473Z,0.10
2018-12-16T18:24:57.244Z,0.10
2018-12-16T18:27:26.798Z,0.20
2018-12-16T18:29:56.146Z,0.10
2018-12-16T18:32:25.655Z,0.10
2018-12-16T18:34:55.237Z,0.20
2018-12-16T18:37:23.699Z,0.10
2018-12-16T18:39:53.117Z,0.10
2018-12-16T18:42:21.565Z,0.20
2018-12-16T18:44:50.730Z,0.20
2018-12-16T18:47:20.149Z,0.20
2018-12-16T18:49:49.521Z,0.20
2018-12-16T18:52:21.182Z,0.20
2018-12-16T18:54:49.496Z,0.20
2018-12-16T18:57:18.965Z,0.20
2018-12-16T18:59:48.193Z,0.20
2018-12-16T19:02:16.370Z,0.20
2018-12-16T19:04:46.103Z,0.20
2018-12-16T19:10:09.446Z,0.20
2018-12-16T19:12:39.818Z,0.20
2018-12-16T19:15:10.428Z,0.20
2018-12-16T19:17:39.767Z,0.30
2018-12-16T19:20:08.144Z,0.40
2018-12-16T19:22:37.515Z,0.40
2018-12-16T19:25:06.114Z,0.50
2018-12-16T19:27:35.481Z,0.50
2018-12-16T19:30:06.806Z,0.50
2018-12-16T19:32:35.214Z,0.50
2018-12-16T19:35:03.729Z,0.50
2018-12-16T19:37:33.165Z,0.50
2018-12-16T19:40:01.453Z,0.60
2018-12-16T19:42:29.737Z,0.70
2018-12-16T19:44:57.997Z,0.70
2018-12-16T19:47:26.260Z,0.70
2018-12-16T19:49:55.589Z,0.70
2018-12-16T19:52:24.054Z,0.70
2018-12-16T19:54:54.008Z,0.70
2018-12-16T19:57:22.350Z,0.70
2018-12-16T19:59:50.606Z,0.70
2018-12-16T20:02:19.065Z,0.70
2018-12-16T20:04:51.789Z,0.70
2018-12-16T20:07:20.261Z,0.70
2018-12-16T20:09:53.137Z,0.70
2018-12-16T20:12:24.965Z,0.70
2018-12-16T20:14:54.293Z,0.70
2018-12-16T20:17:26.307Z,0.70
2018-12-16T20:19:54.482Z,0.70
2018-12-16T20:22:22.870Z,0.70
2018-12-16T20:24:52.280Z,0.80
2018-12-16T20:27:20.545Z,0.80
2018-12-16T20:29:48.789Z,0.70
2018-12-16T20:32:17.125Z,0.70
2018-12-16T20:34:45.373Z,0.70
2018-12-16T20:37:19.753Z,0.70
2018-12-16T20:39:48.038Z,0.80
2018-12-16T20:42:16.418Z,0.70
2018-12-16T20:44:45.655Z,0.80
2018-12-16T20:47:16.405Z,0.80
2018-12-16T20:49:50.869Z,0.80
2018-12-16T20:52:28.260Z,0.80
2018-12-16T20:54:59.628Z,0.90
2018-12-16T20:57:30.608Z,0.90
2018-12-16T21:00:04.631Z,0.90
2018-12-16T21:02:37.956Z,0.90
2018-12-16T21:05:12.004Z,1.00
2018-12-16T21:07:42.991Z,1.00
2018-12-16T21:10:11.790Z,1.10
2018-12-16T21:12:45.932Z,1.10
2018-12-16T21:17:25.746Z,1.10
2018-12-16T21:19:54.600Z,1.10
2018-12-16T21:22:24.724Z,1.00
2018-12-16T21:24:56.435Z,1.00
2018-12-16T21:27:26.126Z,1.00
2018-12-16T21:29:55.418Z,0.90
2018-12-16T21:32:26.303Z,0.90
2018-12-16T21:34:57.687Z,1.00
2018-12-16T21:37:26.592Z,1.00
2018-12-16T21:39:55.644Z,1.00
2018-12-16T21:42:24.502Z,1.00
2018-12-16T21:44:55.634Z,1.00
2018-12-16T21:47:26.461Z,1.10
2018-12-16T21:49:57.562Z,1.00
2018-12-16T21:52:27.365Z,1.00
2018-12-16T21:54:56.579Z,1.10
2018-12-16T21:57:25.412Z,1.10
2018-12-16T21:59:56.238Z,1.00
2018-12-16T22:02:24.928Z,1.00
2018-12-16T22:04:53.719Z,1.00
2018-12-16T22:07:23.032Z,1.10
2018-12-16T22:09:53.866Z,1.00
2018-12-16T22:12:22.802Z,1.00
2018-12-16T22:14:53.499Z,1.00
2018-12-16T22:17:22.062Z,1.00
2018-12-16T22:19:52.077Z,1.10
2018-12-16T22:22:20.978Z,1.10
2018-12-16T22:24:50.975Z,1.10
2018-12-16T22:27:20.030Z,1.10
2018-12-16T22:29:48.829Z,1.00
2018-12-16T22:32:18.645Z,1.00
2018-12-16T22:34:49.457Z,1.00
2018-12-16T22:37:18.597Z,1.00
2018-12-16T22:39:49.645Z,1.00
2018-12-16T22:42:22.986Z,1.00
2018-12-16T22:44:51.731Z,1.00
2018-12-16T22:47:20.415Z,1.00
2018-12-16T22:49:49.313Z,1.00
2018-12-16T22:52:18.686Z,1.00
2018-12-16T22:54:47.529Z,1.00
2018-12-16T22:57:16.282Z,1.00
2018-12-16T22:59:44.910Z,1.00
2018-12-16T23:02:13.658Z,1.00
2018-12-16T23:04:42.736Z,1.00
2018-12-16T23:07:11.391Z,1.00
2018-12-16T23:09:40.097Z,1.00
2018-12-16T23:12:08.774Z,1.00
2018-12-16T23:14:37.472Z,1.00
2018-12-16T23:17:06.387Z,1.00
2018-12-16T23:19:35.291Z,1.00
2018-12-16T23:22:04.275Z,1.00
2018-12-16T23:24:33.431Z,1.00
2018-12-16T23:27:02.173Z,1.00
2018-12-16T23:29:30.922Z,1.00
2018-12-16T23:31:59.919Z,1.00
2018-12-16T23:34:28.758Z,1.00
2018-12-16T23:36:57.453Z,1.10
2018-12-16T23:39:26.353Z,1.10
2018-12-16T23:41:55.178Z,1.00
2018-12-16T23:44:25.209Z,1.10
2018-12-16T23:46:53.949Z,1.10
2018-12-16T23:49:22.539Z,1.10
2018-12-16T23:51:51.223Z,1.10
2018-12-16T23:54:20.074Z,1.10
2018-12-16T23:56:48.768Z,1.10
2018-12-16T23:59:18.235Z,1.10
